Time;durP1;ratioP1;P1;durP2;ratioP2;P2;SDS_P1;SDS_P2;PMS_P1;PMS_P2;Temp;Humidity;BMP_temperature;BMP_pressure;BME280_temperature;BME280_humidity;BME280_pressure;Samples;Min_cycle;Max_cycle;Signal;HPM_P1;HPM_P2
2023/04/14 00:00:37;;;;;;;1.93;1.40;;;7.60;99.90;;;;;;4998256;28;20206;-67
2023/04/14 00:03:06;;;;;;;2.80;1.47;;;7.50;99.90;;;;;;4999237;28;20270;-67
2023/04/14 00:05:32;;;;;;;2.67;1.47;;;7.50;99.90;;;;;;4995478;28;20238;-68
2023/04/14 00:07:59;;;;;;;3.03;1.10;;;7.50;99.90;;;;;;5012315;28;20187;-70
2023/04/14 00:10:25;;;;;;;1.43;1.00;;;7.50;99.90;;;;;;4998507;28;20237;-68
2023/04/14 00:12:56;;;;;;;2.37;1.30;;;7.40;99.90;;;;;;5000441;28;20256;-68
2023/04/14 00:15:22;;;;;;;1.90;1.17;;;7.40;99.90;;;;;;4999048;28;20186;-70
2023/04/14 00:17:48;;;;;;;2.30;1.33;;;7.40;99.90;;;;;;5008780;28;20221;-68
2023/04/14 00:20:13;;;;;;;2.40;1.20;;;7.30;99.90;;;;;;4997383;28;20195;-68
2023/04/14 00:22:39;;;;;;;2.77;1.40;;;7.30;99.90;;;;;;4996839;28;20182;-67
2023/04/14 00:25:05;;;;;;;2.50;1.33;;;7.30;99.90;;;;;;5011271;28;20213;-68
2023/04/14 00:27:31;;;;;;;1.47;1.00;;;7.20;99.90;;;;;;5010038;28;20176;-68
2023/04/14 00:29:58;;;;;;;1.20;1.00;;;7.20;99.90;;;;;;4997191;28;20237;-68
2023/04/14 00:32:26;;;;;;;2.40;1.10;;;7.20;99.90;;;;;;5011655;28;20194;-68
2023/04/14 00:34:52;;;;;;;2.17;1.10;;;7.30;99.90;;;;;;5012567;28;20187;-67
2023/04/14 00:37:20;;;;;;;1.83;0.90;;;7.20;99.90;;;;;;5015071;28;20174;-68
2023/04/14 00:39:50;;;;;;;1.73;1.23;;;7.20;99.90;;;;;;5013193;28;20191;-67
2023/04/14 00:42:16;;;;;;;2.27;1.20;;;7.30;99.90;;;;;;4999027;28;20229;-66
2023/04/14 00:44:41;;;;;;;1.87;1.20;;;7.20;99.90;;;;;;4998350;28;20222;-70
2023/04/14 00:47:11;;;;;;;2.20;1.20;;;7.10;99.90;;;;;;4995522;28;20213;-68
2023/04/14 00:49:39;;;;;;;2.00;1.30;;;7.10;99.90;;;;;;5004962;28;20191;-69
2023/04/14 00:52:07;;;;;;;1.83;1.13;;;7.10;99.90;;;;;;4998674;28;20221;-69
2023/04/14 00:54:34;;;;;;;1.77;1.10;;;7.00;99.90;;;;;;4996517;28;20249;-70
2023/04/14 00:57:02;;;;;;;3.57;1.07;;;7.00;99.90;;;;;;5010151;28;20235;-70
2023/04/14 00:59:28;;;;;;;2.37;1.30;;;7.10;99.90;;;;;;5008426;28;20251;-70
2023/04/14 01:01:55;;;;;;;1.50;1.00;;;7.00;99.90;;;;;;5013970;28;20207;-71
2023/04/14 01:04:21;;;;;;;1.77;1.00;;;7.10;99.90;;;;;;5006637;28;20186;-71
2023/04/14 01:06:47;;;;;;;1.57;1.03;;;7.00;99.90;;;;;;4999837;28;20175;-63
2023/04/14 01:09:15;;;;;;;2.40;1.30;;;7.00;99.90;;;;;;4998708;28;20201;-66
2023/04/14 01:11:57;;;;;;;1.87;1.30;;;6.90;99.90;;;;;;4999392;28;20203;-70
2023/04/14 01:14:58;;;;;;;3.17;1.13;;;6.90;99.90;;;;;;4998957;28;20171;-66
2023/04/14 01:17:45;;;;;;;1.57;1.03;;;6.90;99.90;;;;;;5017392;28;20258;-70
2023/04/14 01:20:35;;;;;;;1.57;1.10;;;6.90;99.90;;;;;;4996338;28;20199;-67
2023/04/14 01:23:07;;;;;;;1.47;1.00;;;6.90;99.90;;;;;;5002419;28;20194;-71
2023/04/14 01:26:11;;;;;;;2.30;1.10;;;6.90;99.90;;;;;;5012394;28;20206;-72
2023/04/14 01:28:54;;;;;;;2.13;1.07;;;6.80;99.90;;;;;;5003797;28;20175;-70
2023/04/14 01:31:36;;;;;;;1.90;1.10;;;6.90;99.90;;;;;;4994540;28;20193;-71
2023/04/14 01:34:08;;;;;;;1.40;0.90;;;6.80;99.90;;;;;;4998533;28;20167;-70
2023/04/14 01:37:05;;;;;;;1.53;0.93;;;6.80;99.90;;;;;;5013270;28;20201;-69
2023/04/14 01:39:35;;;;;;;2.87;1.20;;;6.80;99.90;;;;;;4986566;28;20234;-70
2023/04/14 01:42:06;;;;;;;1.50;0.80;;;6.80;99.90;;;;;;4984302;28;20193;-70
2023/04/14 01:44:32;;;;;;;2.00;1.00;;;6.70;99.90;;;;;;5015487;28;20202;-70
2023/04/14 01:47:02;;;;;;;1.77;1.10;;;6.70;99.90;;;;;;5013479;28;20170;-70
2023/04/14 01:49:30;;;;;;;1.80;0.90;;;6.70;99.90;;;;;;5012615;28;20379;-70
2023/04/14 01:51:56;;;;;;;2.60;0.80;;;6.70;99.90;;;;;;5011896;28;20199;-70
2023/04/14 01:54:24;;;;;;;1.50;0.83;;;6.60;99.90;;;;;;4989485;28;20277;-69
2023/04/14 01:56:51;;;;;;;2.53;0.90;;;6.60;99.90;;;;;;5008536;28;20179;-71
2023/04/14 01:59:21;;;;;;;2.60;1.00;;;6.60;99.90;;;;;;4996763;28;20265;-70
2023/04/14 02:01:51;;;;;;;1.83;0.97;;;6.60;99.90;;;;;;5014670;28;20198;-70
2023/04/14 02:04:21;;;;;;;2.20;1.07;;;6.60;99.90;;;;;;5013912;28;20228;-70
2023/04/14 02:06:51;;;;;;;1.70;0.90;;;6.60;99.90;;;;;;4997234;28;20188;-70
2023/04/14 02:09:19;;;;;;;2.23;0.93;;;6.60;99.90;;;;;;5013564;28;20185;-70
2023/04/14 02:11:48;;;;;;;1.87;0.90;;;6.60;99.90;;;;;;4993411;28;20242;-71
2023/04/14 02:14:15;;;;;;;1.53;0.90;;;6.50;99.90;;;;;;5009565;28;20261;-70
2023/04/14 02:16:42;;;;;;;1.90;0.90;;;6.50;99.90;;;;;;4994580;28;20427;-73
2023/04/14 02:19:11;;;;;;;2.20;0.90;;;6.40;99.90;;;;;;5009966;28;20218;-70
2023/04/14 02:21:39;;;;;;;1.87;1.13;;;6.40;99.90;;;;;;4996691;28;20290;-71
2023/04/14 02:24:05;;;;;;;1.83;0.80;;;6.40;99.90;;;;;;4994348;28;20183;-70
2023/04/14 02:26:36;;;;;;;1.63;0.90;;;6.30;99.90;;;;;;5003847;28;20182;-70
2023/04/14 02:29:10;;;;;;;1.67;0.90;;;6.20;99.90;;;;;;4998050;28;20186;-71
2023/04/14 02:31:42;;;;;;;2.00;0.90;;;6.20;99.90;;;;;;5018391;28;20481;-69
2023/04/14 02:34:17;;;;;;;1.63;0.80;;;6.10;99.90;;;;;;4997207;28;20183;-70
2023/04/14 02:36:51;;;;;;;2.03;1.10;;;6.10;99.90;;;;;;4999587;28;20183;-70
2023/04/14 02:39:24;;;;;;;2.30;0.80;;;6.10;99.90;;;;;;4998832;28;20202;-70
2023/04/14 02:42:04;;;;;;;1.40;0.90;;;6.10;99.90;;;;;;5016177;28;20194;-70
2023/04/14 02:44:41;;;;;;;1.70;0.90;;;6.00;99.90;;;;;;5014287;28;20178;-69
2023/04/14 02:47:09;;;;;;;1.13;0.70;;;6.00;99.90;;;;;;5004829;28;20181;-67
2023/04/14 02:49:47;;;;;;;1.10;0.87;;;5.90;99.90;;;;;;5017896;28;20189;-70
2023/04/14 02:52:18;;;;;;;1.33;1.10;;;5.90;99.90;;;;;;4999084;28;20202;-67
2023/04/14 02:54:45;;;;;;;1.70;0.90;;;5.90;99.90;;;;;;5001839;28;20182;-70
2023/04/14 02:57:11;;;;;;;2.43;1.03;;;5.90;99.90;;;;;;5005707;28;20194;-69
2023/04/14 02:59:38;;;;;;;2.47;0.90;;;5.90;99.90;;;;;;5010799;28;20314;-70
2023/04/14 03:02:05;;;;;;;1.23;0.70;;;5.90;99.90;;;;;;5016810;28;20183;-68
2023/04/14 03:04:34;;;;;;;2.37;1.00;;;5.90;99.90;;;;;;5016844;28;20183;-69
2023/04/14 03:07:04;;;;;;;2.67;1.00;;;5.90;99.90;;;;;;5001532;28;20201;-69
2023/04/14 03:09:31;;;;;;;2.17;1.00;;;5.80;99.90;;;;;;5000956;28;20209;-70
2023/04/14 03:11:59;;;;;;;1.87;1.00;;;5.80;99.90;;;;;;4999554;28;20198;-71
2023/04/14 03:14:29;;;;;;;2.57;1.40;;;5.80;99.90;;;;;;5003037;28;20216;-69
2023/04/14 03:16:55;;;;;;;1.67;1.30;;;5.80;99.90;;;;;;5016758;28;20253;-70
2023/04/14 03:19:26;;;;;;;2.17;1.00;;;5.80;99.90;;;;;;4999770;28;20195;-68
2023/04/14 03:21:54;;;;;;;1.70;1.03;;;5.70;99.90;;;;;;4997279;28;20294;-68
2023/04/14 03:24:23;;;;;;;1.97;0.83;;;5.70;99.90;;;;;;5004104;28;20189;-68
2023/04/14 03:27:02;;;;;;;2.03;1.00;;;5.60;99.90;;;;;;5009409;28;20261;-70
2023/04/14 03:29:36;;;;;;;9.40;7.10;;;5.70;99.90;;;;;;4998775;28;20237;-70
2023/04/14 03:32:05;;;;;;;6.10;3.50;;;5.60;99.90;;;;;;4999004;28;20308;-70
2023/04/14 03:34:39;;;;;;;3.67;2.40;;;5.60;99.90;;;;;;5013014;28;20268;-68
2023/04/14 03:37:08;;;;;;;3.13;2.80;;;5.60;99.90;;;;;;4990432;28;20266;-70
2023/04/14 03:39:37;;;;;;;4.23;3.17;;;5.60;99.90;;;;;;4997204;28;20282;-69
2023/04/14 03:42:10;;;;;;;4.23;3.27;;;5.60;99.90;;;;;;5020608;28;20285;-69
2023/04/14 03:44:44;;;;;;;4.87;2.97;;;5.60;99.90;;;;;;4999388;28;20189;-69
2023/04/14 03:47:11;;;;;;;3.50;3.00;;;5.70;99.90;;;;;;4991414;28;20177;-70
2023/04/14 03:49:38;;;;;;;3.67;2.70;;;5.70;99.90;;;;;;4999093;28;20225;-70
2023/04/14 03:52:07;;;;;;;2.70;1.93;;;5.70;99.90;;;;;;4995660;28;20213;-69
2023/04/14 03:54:39;;;;;;;2.30;2.00;;;5.70;99.90;;;;;;4997589;28;20171;-67
2023/04/14 03:57:05;;;;;;;5.73;3.47;;;5.70;99.90;;;;;;4993390;28;20185;-68
2023/04/14 03:59:36;;;;;;;3.77;2.33;;;5.70;99.90;;;;;;5009770;28;20187;-70
2023/04/14 04:02:02;;;;;;;2.63;1.90;;;5.70;99.90;;;;;;4999423;28;20205;-70
2023/04/14 04:04:30;;;;;;;5.67;2.20;;;5.70;99.90;;;;;;4999155;28;20174;-70
2023/04/14 04:06:59;;;;;;;2.47;1.90;;;5.60;99.90;;;;;;5016063;28;20183;-69
2023/04/14 04:09:29;;;;;;;2.50;1.60;;;5.70;99.90;;;;;;5016715;28;20174;-69
2023/04/14 04:11:58;;;;;;;2.23;1.40;;;5.70;99.90;;;;;;4999483;28;20201;-70
2023/04/14 04:14:26;;;;;;;4.50;1.40;;;5.60;99.90;;;;;;5000280;28;20183;-70
2023/04/14 04:16:58;;;;;;;2.03;1.30;;;5.60;99.90;;;;;;4996229;28;20183;-67
2023/04/14 04:19:27;;;;;;;1.97;1.27;;;5.60;99.90;;;;;;5018132;28;20186;-69
2023/04/14 04:21:56;;;;;;;1.87;1.07;;;5.60;99.90;;;;;;4999554;28;20199;-69
2023/04/14 04:24:27;;;;;;;1.10;1.00;;;5.60;99.90;;;;;;4992875;28;20170;-69
2023/04/14 04:26:57;;;;;;;2.67;1.30;;;5.70;99.90;;;;;;4999228;28;20183;-69
2023/04/14 04:29:26;;;;;;;3.53;1.77;;;5.70;99.90;;;;;;4995733;28;20203;-69
2023/04/14 04:31:51;;;;;;;2.30;1.43;;;5.70;99.90;;;;;;5011445;28;20207;-69
2023/04/14 04:34:18;;;;;;;2.07;1.20;;;5.60;99.90;;;;;;4994990;28;20193;-69
2023/04/14 04:36:47;;;;;;;2.27;1.00;;;5.60;99.90;;;;;;4995801;28;20186;-69
2023/04/14 04:39:12;;;;;;;1.63;1.13;;;5.60;99.90;;;;;;4997294;28;20298;-69
2023/04/14 04:41:40;;;;;;;3.00;1.20;;;5.60;99.90;;;;;;5013157;28;20285;-69
2023/04/14 04:44:06;;;;;;;2.40;1.10;;;5.70;99.90;;;;;;5014492;28;20182;-69
2023/04/14 04:46:43;;;;;;;2.13;1.17;;;5.60;99.90;;;;;;5016617;28;20246;-64
2023/04/14 04:49:14;;;;;;;3.17;1.07;;;5.60;99.90;;;;;;4995286;28;20217;-69
2023/04/14 04:51:41;;;;;;;3.00;1.10;;;5.60;99.90;;;;;;4998651;28;20190;-70
2023/04/14 04:54:07;;;;;;;4.93;1.03;;;5.60;99.90;;;;;;4998043;28;20190;-69
2023/04/14 04:56:33;;;;;;;2.07;1.00;;;5.70;99.90;;;;;;4988339;28;20192;-68
2023/04/14 04:58:58;;;;;;;1.90;1.20;;;5.60;99.90;;;;;;4998299;28;20201;-69
2023/04/14 05:01:26;;;;;;;3.03;1.50;;;5.60;99.90;;;;;;4994296;28;20214;-69
2023/04/14 05:03:52;;;;;;;1.53;1.20;;;5.60;99.90;;;;;;5018116;28;20194;-70
2023/04/14 05:06:20;;;;;;;1.10;1.00;;;5.60;99.90;;;;;;4990175;28;20181;-69
2023/04/14 05:08:46;;;;;;;2.20;1.13;;;5.60;99.90;;;;;;4998445;28;20175;-68
2023/04/14 05:11:14;;;;;;;1.93;1.00;;;5.50;99.90;;;;;;4998091;28;20978;-69
2023/04/14 05:13:42;;;;;;;2.07;1.20;;;5.50;99.90;;;;;;5001645;28;20210;-69
2023/04/14 05:16:12;;;;;;;3.20;1.07;;;5.50;99.90;;;;;;5016859;28;20194;-70
2023/04/14 05:18:38;;;;;;;2.27;1.20;;;5.50;99.90;;;;;;5005763;28;20252;-69
2023/04/14 05:21:13;;;;;;;3.13;1.23;;;5.50;99.90;;;;;;5000175;28;20199;-69
2023/04/14 05:23:41;;;;;;;2.47;1.37;;;5.50;99.90;;;;;;4995147;28;20199;-68
2023/04/14 05:26:07;;;;;;;2.33;1.43;;;5.50;99.90;;;;;;5014060;28;20230;-68
2023/04/14 05:28:33;;;;;;;4.73;1.77;;;5.50;99.90;;;;;;4998174;28;20186;-69
2023/04/14 05:30:58;;;;;;;2.47;1.60;;;5.50;99.90;;;;;;4998748;28;20179;-69
2023/04/14 05:33:26;;;;;;;1.73;1.20;;;5.50;99.90;;;;;;5004136;28;20174;-67
2023/04/14 05:35:54;;;;;;;2.40;1.40;;;5.50;99.90;;;;;;5005571;28;20191;-68
2023/04/14 05:38:23;;;;;;;2.47;1.20;;;5.50;99.90;;;;;;4994968;28;20243;-69
2023/04/14 05:40:49;;;;;;;2.07;1.30;;;5.60;99.90;;;;;;4994208;28;20223;-68
2023/04/14 05:43:15;;;;;;;3.70;1.40;;;5.60;99.90;;;;;;5005783;28;20202;-70
2023/04/14 05:45:41;;;;;;;2.70;1.37;;;5.60;99.90;;;;;;5001498;28;20183;-69
2023/04/14 05:48:07;;;;;;;4.73;1.50;;;5.70;99.90;;;;;;5013463;28;20205;-69
2023/04/14 05:50:34;;;;;;;4.07;1.57;;;5.70;99.90;;;;;;5014327;28;20189;-70
2023/04/14 05:53:06;;;;;;;2.30;1.30;;;5.80;99.90;;;;;;5013651;28;20224;-69
2023/04/14 05:55:32;;;;;;;3.70;1.30;;;5.80;99.90;;;;;;5014457;28;20198;-69
2023/04/14 05:57:58;;;;;;;1.77;1.23;;;5.90;99.90;;;;;;5006031;28;20175;-69
2023/04/14 06:00:24;;;;;;;2.93;1.33;;;5.90;99.90;;;;;;4997633;28;20252;-69
2023/04/14 06:02:53;;;;;;;2.10;1.43;;;6.00;99.90;;;;;;5001552;28;20178;-68
2023/04/14 06:05:18;;;;;;;2.87;1.47;;;6.00;99.90;;;;;;4999588;28;20202;-69
2023/04/14 06:07:45;;;;;;;2.10;1.43;;;6.10;99.90;;;;;;5011227;28;20258;-69
2023/04/14 06:10:16;;;;;;;2.70;1.40;;;6.10;99.90;;;;;;4994661;28;20214;-67
2023/04/14 06:12:41;;;;;;;2.40;1.37;;;6.20;99.90;;;;;;4994813;28;20179;-69
2023/04/14 06:15:07;;;;;;;2.60;1.50;;;6.20;99.90;;;;;;5000369;28;20171;-69
2023/04/14 06:17:34;;;;;;;3.50;1.30;;;6.20;99.90;;;;;;5004516;28;20195;-70
2023/04/14 06:20:00;;;;;;;4.27;1.50;;;6.30;99.90;;;;;;4983575;28;20240;-70
2023/04/14 06:22:28;;;;;;;1.97;1.50;;;6.30;99.90;;;;;;4997696;28;20179;-69
2023/04/14 06:24:56;;;;;;;3.93;1.87;;;6.40;99.90;;;;;;5012433;28;20175;-65
2023/04/14 06:27:25;;;;;;;5.13;1.83;;;6.40;99.90;;;;;;5007095;28;20174;-69
2023/04/14 06:29:51;;;;;;;3.47;1.63;;;6.50;99.90;;;;;;4985753;28;20248;-69
2023/04/14 06:32:20;;;;;;;3.70;2.00;;;6.50;99.90;;;;;;4997394;28;20202;-68
2023/04/14 06:34:49;;;;;;;2.07;1.50;;;6.60;99.90;;;;;;4997808;28;20261;-68
2023/04/14 06:37:15;;;;;;;7.30;1.70;;;6.70;99.90;;;;;;4994251;28;20199;-68
2023/04/14 06:39:45;;;;;;;3.43;1.67;;;6.80;99.90;;;;;;5008448;28;20180;-68
2023/04/14 06:42:16;;;;;;;3.07;1.70;;;6.80;99.90;;;;;;5000302;28;20432;-66
2023/04/14 06:44:41;;;;;;;3.30;1.50;;;6.90;99.90;;;;;;4993096;28;20229;-68
2023/04/14 06:47:09;;;;;;;3.23;1.80;;;7.00;99.90;;;;;;4996998;28;20206;-67
2023/04/14 06:49:35;;;;;;;3.23;1.47;;;7.00;99.90;;;;;;5012533;28;20198;-66
2023/04/14 06:52:02;;;;;;;3.47;1.63;;;7.10;99.90;;;;;;4979529;28;20266;-68
2023/04/14 06:54:30;;;;;;;4.33;1.47;;;7.20;99.90;;;;;;4997134;28;20244;-68
2023/04/14 06:56:56;;;;;;;1.90;1.27;;;7.20;99.90;;;;;;5012882;28;20199;-68
2023/04/14 06:59:26;;;;;;;3.83;1.47;;;7.30;99.90;;;;;;4994990;28;20194;-65
2023/04/14 07:01:54;;;;;;;3.93;1.60;;;7.30;99.90;;;;;;4987695;28;20210;-68
2023/04/14 07:04:21;;;;;;;2.50;1.43;;;7.40;99.90;;;;;;4995956;28;20175;-66
2023/04/14 07:06:49;;;;;;;3.17;1.67;;;7.50;99.90;;;;;;5013225;28;20175;-68
2023/04/14 07:09:15;;;;;;;2.93;1.50;;;7.60;99.90;;;;;;5011035;28;20249;-69
2023/04/14 07:11:41;;;;;;;2.83;1.57;;;7.60;99.90;;;;;;4996330;28;20178;-69
2023/04/14 07:14:06;;;;;;;2.83;1.97;;;7.70;99.90;;;;;;4996209;28;20261;-68
2023/04/14 07:16:32;;;;;;;4.00;1.90;;;7.80;99.90;;;;;;4996018;28;20183;-68
2023/04/14 07:18:57;;;;;;;3.53;2.00;;;7.90;99.90;;;;;;5007806;28;20190;-68
2023/04/14 07:21:26;;;;;;;4.77;2.40;;;8.00;99.90;;;;;;4997339;28;20286;-67
2023/04/14 07:23:51;;;;;;;2.63;1.63;;;8.00;99.90;;;;;;4998153;28;20176;-69
2023/04/14 07:26:24;;;;;;;4.37;1.70;;;8.10;99.90;;;;;;4997855;28;20183;-68
2023/04/14 07:28:52;;;;;;;3.97;2.17;;;8.20;99.90;;;;;;4981409;28;20258;-68
2023/04/14 07:31:20;;;;;;;2.83;1.80;;;8.30;99.90;;;;;;4994765;28;20202;-69
2023/04/14 07:33:46;;;;;;;3.43;1.90;;;8.30;99.90;;;;;;5016293;28;20183;-68
2023/04/14 07:36:11;;;;;;;3.80;2.00;;;8.40;99.90;;;;;;5002369;28;20197;-70
2023/04/14 07:38:40;;;;;;;2.80;1.80;;;8.50;99.90;;;;;;4984502;28;20191;-69
2023/04/14 07:41:06;;;;;;;3.00;1.97;;;8.50;99.90;;;;;;4995941;28;20206;-68
2023/04/14 07:43:35;;;;;;;2.57;1.80;;;8.60;99.90;;;;;;4981368;28;20266;-68
2023/04/14 07:46:06;;;;;;;5.07;2.20;;;8.70;99.90;;;;;;5017179;28;20186;-69
2023/04/14 07:48:33;;;;;;;4.10;2.00;;;8.80;99.90;;;;;;4999998;28;20213;-68
2023/04/14 07:51:01;;;;;;;3.80;2.10;;;8.80;99.90;;;;;;5001679;28;20317;-68
2023/04/14 07:53:27;;;;;;;3.73;1.70;;;8.90;99.90;;;;;;5016882;28;20179;-68
2023/04/14 07:55:53;;;;;;;4.17;2.00;;;9.00;99.90;;;;;;5010646;28;20223;-68
2023/04/14 07:58:19;;;;;;;3.40;1.97;;;9.10;99.90;;;;;;5003582;28;20210;-68
2023/04/14 08:00:46;;;;;;;3.43;2.00;;;9.10;99.90;;;;;;5016913;28;20281;-68
2023/04/14 08:03:15;;;;;;;3.33;2.10;;;9.20;99.90;;;;;;5002592;28;20182;-68
2023/04/14 08:05:41;;;;;;;3.33;1.83;;;9.30;99.90;;;;;;4997562;28;20195;-69
2023/04/14 08:08:09;;;;;;;4.13;2.10;;;9.40;99.90;;;;;;4997119;28;20195;-68
2023/04/14 08:10:36;;;;;;;3.43;2.27;;;9.40;99.90;;;;;;4997694;28;20179;-68
2023/04/14 08:13:04;;;;;;;2.70;1.73;;;9.50;99.90;;;;;;5011374;28;20207;-70
2023/04/14 08:15:31;;;;;;;4.78;2.00;;;9.60;99.90;;;;;;4999302;28;20179;-67
2023/04/14 08:17:58;;;;;;;3.38;2.00;;;9.70;99.90;;;;;;4999483;28;20204;-68
2023/04/14 08:20:24;;;;;;;3.70;1.90;;;9.80;99.90;;;;;;5001691;28;20254;-69
2023/04/14 08:22:50;;;;;;;4.22;1.73;;;9.80;99.90;;;;;;4998343;28;20167;-68
2023/04/14 08:25:15;;;;;;;2.92;1.77;;;9.90;99.90;;;;;;4999552;28;20265;-70
2023/04/14 08:27:41;;;;;;;2.85;1.45;;;10.00;99.90;;;;;;4999377;28;20264;-68
2023/04/14 08:30:09;;;;;;;3.28;1.65;;;10.10;99.90;;;;;;4999278;28;20214;-67
2023/04/14 08:32:35;;;;;;;4.88;1.67;;;10.20;99.90;;;;;;5004318;28;20198;-68
2023/04/14 08:35:03;;;;;;;3.80;1.70;;;10.30;99.90;;;;;;5002313;28;20221;-66
2023/04/14 08:37:28;;;;;;;4.72;1.40;;;10.40;99.90;;;;;;5003692;28;20178;-69
2023/04/14 08:39:56;;;;;;;3.75;1.40;;;10.40;99.90;;;;;;4980287;28;20167;-68
2023/04/14 08:42:23;;;;;;;2.83;1.40;;;10.50;99.90;;;;;;4980458;28;20175;-67
2023/04/14 08:44:51;;;;;;;2.45;1.30;;;10.60;99.90;;;;;;5004425;28;20172;-68
2023/04/14 08:47:19;;;;;;;6.93;1.58;;;10.70;99.90;;;;;;5010095;28;20203;-67
2023/04/14 08:49:51;;;;;;;2.58;1.20;;;10.90;99.90;;;;;;5011021;28;20179;-67
2023/04/14 08:52:24;;;;;;;3.20;1.40;;;10.90;99.90;;;;;;5005070;28;20183;-67
2023/04/14 08:54:51;;;;;;;2.22;1.05;;;11.00;99.90;;;;;;4998660;28;20203;-66
2023/04/14 08:57:25;;;;;;;2.50;1.00;;;11.10;99.90;;;;;;4984166;28;20432;-65
2023/04/14 08:59:53;;;;;;;3.58;1.20;;;11.20;99.90;;;;;;5008197;28;20182;-65
2023/04/14 09:02:20;;;;;;;3.95;1.20;;;11.20;99.90;;;;;;4998293;28;20263;-66
2023/04/14 09:04:46;;;;;;;2.22;1.20;;;11.40;99.90;;;;;;4995684;28;20235;-66
2023/04/14 09:07:13;;;;;;;2.95;1.30;;;11.40;99.90;;;;;;5009192;28;20179;-67
2023/04/14 09:09:41;;;;;;;2.90;1.20;;;11.60;99.90;;;;;;4997439;28;20185;-67
2023/04/14 09:12:13;;;;;;;3.15;1.38;;;11.60;99.90;;;;;;5012559;28;20269;-67
2023/04/14 09:14:39;;;;;;;3.40;1.30;;;11.80;99.90;;;;;;4996580;28;20318;-66
2023/04/14 09:17:05;;;;;;;2.88;1.05;;;11.90;99.90;;;;;;4981790;28;20218;-68
2023/04/14 09:19:33;;;;;;;2.90;1.20;;;12.00;99.90;;;;;;5009411;28;20174;-68
2023/04/14 09:21:58;;;;;;;2.95;1.13;;;12.00;99.90;;;;;;4990921;28;20198;-68
2023/04/14 09:24:32;;;;;;;2.83;1.10;;;12.20;99.90;;;;;;4998632;28;20197;-68
2023/04/14 09:27:02;;;;;;;3.53;1.33;;;12.20;99.90;;;;;;4998271;28;20175;-67
2023/04/14 09:29:28;;;;;;;3.05;1.08;;;12.30;99.90;;;;;;5001278;28;20265;-67
2023/04/14 09:31:54;;;;;;;2.47;1.30;;;12.40;99.90;;;;;;4983183;28;20190;-67
2023/04/14 09:34:20;;;;;;;4.10;1.17;;;12.50;99.90;;;;;;5013810;28;20217;-67
2023/04/14 09:37:04;;;;;;;3.00;1.20;;;12.50;99.90;;;;;;5011457;28;20179;-66
2023/04/14 09:39:33;;;;;;;3.60;1.10;;;12.70;99.90;;;;;;5002794;28;20184;-66
2023/04/14 09:42:02;;;;;;;2.80;1.20;;;12.80;99.90;;;;;;4994475;28;20210;-66
2023/04/14 09:44:29;;;;;;;1.90;1.00;;;12.80;99.90;;;;;;5012060;28;20202;-67
2023/04/14 09:46:57;;;;;;;3.10;1.90;;;12.90;99.90;;;;;;5005638;28;20210;-68
2023/04/14 09:49:24;;;;;;;4.30;1.52;;;13.00;99.90;;;;;;4994684;28;20175;-68
2023/04/14 09:51:53;;;;;;;3.78;1.20;;;13.10;99.90;;;;;;4998340;28;20257;-67
2023/04/14 09:54:25;;;;;;;3.63;1.50;;;13.20;99.90;;;;;;5006983;28;20195;-66
2023/04/14 09:56:54;;;;;;;4.32;1.25;;;13.30;99.90;;;;;;5013159;28;20174;-66
2023/04/14 09:59:35;;;;;;;3.15;1.10;;;13.40;99.90;;;;;;4996729;28;20178;-66
2023/04/14 10:02:06;;;;;;;4.15;1.10;;;13.50;99.90;;;;;;4988772;28;20202;-66
2023/04/14 10:04:32;;;;;;;3.20;1.23;;;13.80;99.90;;;;;;5013069;28;20202;-67
2023/04/14 10:07:01;;;;;;;2.55;1.10;;;14.20;99.90;;;;;;4997057;28;20186;-67
2023/04/14 10:09:34;;;;;;;3.25;1.02;;;14.80;99.90;;;;;;5015447;28;20182;-67
2023/04/14 10:12:10;;;;;;;2.83;1.20;;;15.50;99.90;;;;;;4999310;28;20252;-67
2023/04/14 10:14:37;;;;;;;3.15;1.13;;;16.10;99.90;;;;;;5013084;28;20183;-67
2023/04/14 10:17:03;;;;;;;4.15;1.60;;;16.70;99.90;;;;;;5008356;28;20187;-67
2023/04/14 10:19:29;;;;;;;2.65;1.10;;;17.20;99.90;;;;;;4992361;28;20194;-68
2023/04/14 10:21:56;;;;;;;2.45;1.10;;;17.60;99.90;;;;;;5017277;28;20204;-71
2023/04/14 10:24:23;;;;;;;2.05;1.15;;;18.00;99.90;;;;;;5001529;28;20202;-67
2023/04/14 10:26:53;;;;;;;2.40;1.05;;;18.30;99.90;;;;;;5003794;28;20189;-70
2023/04/14 10:29:20;;;;;;;2.25;1.20;;;18.60;99.90;;;;;;4994900;28;20175;-72
2023/04/14 10:32:00;;;;;;;3.33;1.13;;;18.80;99.90;;;;;;4994930;28;20286;-69
2023/04/14 10:34:29;;;;;;;2.17;1.10;;;19.00;99.90;;;;;;4990342;28;20194;-66
2023/04/14 10:36:55;;;;;;;3.50;1.38;;;19.20;99.90;;;;;;5005139;28;20187;-66
2023/04/14 10:39:23;;;;;;;2.22;1.08;;;19.40;99.90;;;;;;4995555;28;20172;-66
2023/04/14 10:41:53;;;;;;;3.38;1.17;;;19.60;99.90;;;;;;5013878;28;20264;-66
2023/04/14 10:44:32;;;;;;;3.45;1.08;;;19.70;99.90;;;;;;4989447;28;20180;-67
2023/04/14 10:47:03;;;;;;;2.60;0.90;;;19.80;99.90;;;;;;4992133;28;20218;-67
2023/04/14 10:49:37;;;;;;;2.00;1.10;;;19.90;99.90;;;;;;5010194;28;20225;-67
2023/04/14 10:52:24;;;;;;;2.95;0.85;;;20.00;99.90;;;;;;5001298;28;20174;-67
2023/04/14 10:55:06;;;;;;;2.15;1.00;;;20.10;99.90;;;;;;4980056;28;20270;-67
2023/04/14 10:57:37;;;;;;;3.33;1.10;;;20.20;99.90;;;;;;5008343;28;20186;-67
2023/04/14 11:00:27;;;;;;;3.38;1.00;;;20.20;99.90;;;;;;5000554;28;20198;-67
2023/04/14 11:02:58;;;;;;;3.08;1.05;;;20.20;99.90;;;;;;5011735;28;20186;-67
2023/04/14 11:05:26;;;;;;;2.67;1.08;;;20.30;99.90;;;;;;4992152;28;20233;-67
2023/04/14 11:08:00;;;;;;;2.40;1.05;;;20.20;99.90;;;;;;5010151;28;20171;-67
2023/04/14 11:10:29;;;;;;;1.67;0.98;;;19.90;99.90;;;;;;5015710;28;20182;-67
2023/04/14 11:13:21;;;;;;;2.65;1.30;;;19.60;99.90;;;;;;5012215;28;20202;-67
2023/04/14 11:15:56;;;;;;;2.40;1.10;;;19.50;99.90;;;;;;4997498;28;20191;-67
2023/04/14 11:18:34;;;;;;;2.70;1.10;;;19.50;99.90;;;;;;5014578;28;20187;-67
2023/04/14 11:21:14;;;;;;;1.75;0.70;;;19.60;99.90;;;;;;5016444;28;20209;-67
2023/04/14 11:23:40;;;;;;;1.52;0.80;;;19.80;99.90;;;;;;5007443;28;20206;-67
2023/04/14 11:26:08;;;;;;;3.20;1.15;;;19.80;99.90;;;;;;5010837;28;20175;-67
2023/04/14 11:28:39;;;;;;;2.80;1.15;;;19.90;99.90;;;;;;4999971;28;20174;-66
2023/04/14 11:31:10;;;;;;;3.00;1.10;;;20.00;99.90;;;;;;5005959;28;20209;-66
2023/04/14 11:33:40;;;;;;;2.28;0.90;;;20.10;99.90;;;;;;4999325;28;20175;-66
2023/04/14 11:36:10;;;;;;;2.45;1.15;;;20.10;99.90;;;;;;4994155;28;20233;-66
2023/04/14 11:38:39;;;;;;;2.20;1.08;;;20.10;99.90;;;;;;5009560;28;20264;-66
2023/04/14 11:41:05;;;;;;;3.13;0.88;;;20.00;99.90;;;;;;4996165;28;20191;-66
2023/04/14 11:43:31;;;;;;;2.15;1.00;;;19.80;99.90;;;;;;5009204;28;20179;-66
2023/04/14 11:46:00;;;;;;;2.53;0.90;;;19.50;99.90;;;;;;5011598;28;20201;-67
2023/04/14 11:48:30;;;;;;;1.65;0.85;;;19.30;99.90;;;;;;5010953;28;20167;-67
2023/04/14 11:51:01;;;;;;;2.97;0.90;;;19.20;99.90;;;;;;5007855;28;20198;-67
2023/04/14 11:53:27;;;;;;;1.85;0.70;;;19.10;99.90;;;;;;4998851;28;20167;-66
2023/04/14 11:55:53;;;;;;;1.52;0.70;;;19.00;99.90;;;;;;5013605;28;20206;-66
2023/04/14 11:58:25;;;;;;;2.17;0.82;;;18.90;99.90;;;;;;4982750;28;20176;-68
2023/04/14 12:00:52;;;;;;;1.60;0.80;;;18.80;99.90;;;;;;5012293;28;20194;-66
2023/04/14 12:03:20;;;;;;;1.88;0.80;;;18.60;99.90;;;;;;5010351;28;20218;-67
2023/04/14 12:05:47;;;;;;;2.63;0.90;;;18.50;99.90;;;;;;4998981;28;20178;-66
2023/04/14 12:08:17;;;;;;;1.60;0.85;;;18.40;99.90;;;;;;5014722;28;20285;-67
2023/04/14 12:10:45;;;;;;;1.88;0.80;;;18.20;99.90;;;;;;4999293;28;20202;-67
2023/04/14 12:13:11;;;;;;;1.98;0.80;;;18.00;99.90;;;;;;5013337;28;20198;-66
2023/04/14 12:15:39;;;;;;;1.92;0.90;;;17.90;99.90;;;;;;4992990;28;20222;-66
2023/04/14 12:18:13;;;;;;;2.95;0.85;;;17.80;99.90;;;;;;4982655;28;20264;-66
2023/04/14 12:20:48;;;;;;;1.63;0.70;;;17.60;99.90;;;;;;5003655;28;20209;-66
2023/04/14 12:23:14;;;;;;;2.97;0.80;;;17.60;99.90;;;;;;4997737;28;20177;-66
2023/04/14 12:25:40;;;;;;;2.50;0.80;;;17.60;99.90;;;;;;5003130;28;20221;-66
2023/04/14 12:28:07;;;;;;;2.00;0.80;;;17.60;99.90;;;;;;4993404;28;20202;-68
2023/04/14 12:30:36;;;;;;;1.48;0.85;;;17.70;99.90;;;;;;4995102;28;20287;-66
2023/04/14 12:33:11;;;;;;;1.92;1.00;;;17.70;99.90;;;;;;5000787;28;20234;-66
2023/04/14 12:35:40;;;;;;;1.83;0.98;;;17.80;99.90;;;;;;5013684;28;20187;-66
2023/04/14 12:38:11;;;;;;;1.77;0.73;;;17.80;99.90;;;;;;5011126;28;20202;-67
2023/04/14 12:40:46;;;;;;;1.88;1.00;;;17.80;99.90;;;;;;4998152;28;20205;-66
2023/04/14 12:43:15;;;;;;;1.85;0.90;;;17.70;99.90;;;;;;4995215;28;20233;-66
2023/04/14 12:45:42;;;;;;;2.33;0.90;;;17.70;99.90;;;;;;5018105;28;20225;-66
2023/04/14 12:48:08;;;;;;;1.50;0.90;;;17.60;99.90;;;;;;4997193;28;20178;-66
2023/04/14 12:50:33;;;;;;;2.25;0.90;;;17.60;99.90;;;;;;5015041;28;20190;-67
2023/04/14 12:53:00;;;;;;;2.05;0.82;;;17.50;99.90;;;;;;4997240;28;20285;-68
2023/04/14 12:55:30;;;;;;;2.63;1.17;;;17.50;99.90;;;;;;5014869;28;20178;-66
2023/04/14 12:57:57;;;;;;;1.92;0.77;;;17.50;99.90;;;;;;4998323;28;20179;-65
2023/04/14 13:00:26;;;;;;;1.63;0.70;;;17.60;99.90;;;;;;5009783;28;20414;-66
2023/04/14 13:02:55;;;;;;;2.15;0.80;;;17.60;99.90;;;;;;4995065;28;20266;-66